Time;durP1;ratioP1;P1;durP2;ratioP2;P2;SDS_P1;SDS_P2;PMS_P1;PMS_P2;Temp;Humidity;BMP_temperature;BMP_pressure;BME280_temperature;BME280_humidity;BME280_pressure;Samples;Min_cycle;Max_cycle;Signal;HPM_P1;HPM_P2
2023/08/06 00:00:00;;;;;;;14.65;10.10;;;;;;;23.73;100.00;98646.19;5105708;28;20058;-24
2023/08/06 00:02:26;;;;;;;15.52;9.90;;;;;;;23.81;100.00;98639.06;5105552;28;20151;-24
2023/08/06 00:04:52;;;;;;;12.55;10.32;;;;;;;23.82;100.00;98633.28;5105058;28;20768;-23
2023/08/06 00:07:18;;;;;;;16.48;9.77;;;;;;;23.75;100.00;98643.13;5105658;28;20025;-23
2023/08/06 00:09:43;;;;;;;11.73;9.43;;;;;;;23.83;100.00;98644.97;5104961;28;20038;-23
2023/08/06 00:12:08;;;;;;;14.48;9.50;;;;;;;23.77;100.00;98640.88;5105674;27;20035;-24
2023/08/06 00:14:34;;;;;;;13.45;9.10;;;;;;;23.65;100.00;98631.53;5105285;28;20048;-23
2023/08/06 00:17:00;;;;;;;12.43;9.10;;;;;;;23.78;100.00;98653.34;5105326;28;20028;-23
2023/08/06 00:19:27;;;;;;;15.73;8.73;;;;;;;23.94;100.00;98640.63;5104948;28;20427;-23
2023/08/06 00:21:53;;;;;;;13.20;9.57;;;;;;;23.78;100.00;98650.63;5104979;28;20544;-24
2023/08/06 00:24:18;;;;;;;14.23;9.90;;;;;;;23.75;100.00;98648.56;5105415;28;20034;-23
2023/08/06 00:26:44;;;;;;;14.43;9.27;;;;;;;23.66;100.00;98646.75;5105161;28;20115;-24
2023/08/06 00:29:09;;;;;;;14.68;9.40;;;;;;;23.53;100.00;98636.19;5105236;28;20031;-23
2023/08/06 00:31:34;;;;;;;14.23;9.57;;;;;;;23.54;100.00;98633.16;5105105;28;20024;-24
2023/08/06 00:34:00;;;;;;;13.68;9.73;;;;;;;23.69;100.00;98644.47;5104681;28;20975;-24
2023/08/06 00:36:25;;;;;;;12.15;9.55;;;;;;;23.69;100.00;98645.28;5105103;28;20106;-24
2023/08/06 00:45:16;;;;;;;14.65;10.32;;;;;;;23.21;100.00;98615.00;5048152;22;1440390;-83
2023/08/06 00:47:42;;;;;;;12.77;9.80;;;;;;;23.46;100.00;98636.78;5011531;28;20460;-83
2023/08/06 00:50:08;;;;;;;14.93;10.30;;;;;;;23.56;100.00;98614.56;5025394;28;20029;-84
2023/08/06 00:52:35;;;;;;;12.82;9.52;;;;;;;23.42;100.00;98603.22;5025707;28;20026;-83
2023/08/06 00:55:01;;;;;;;12.00;10.25;;;;;;;23.57;100.00;98591.63;5025761;28;20030;-81
2023/08/06 00:57:26;;;;;;;13.98;10.15;;;;;;;23.53;100.00;98596.16;5007715;28;20037;-82
2023/08/06 00:59:53;;;;;;;16.52;10.45;;;;;;;23.51;100.00;98595.72;5008437;28;20478;-82
2023/08/06 01:02:19;;;;;;;12.40;9.30;;;;;;;23.35;100.00;98592.09;5025487;28;20100;-84
2023/08/06 01:04:44;;;;;;;13.25;9.70;;;;;;;23.52;100.00;98593.78;5007460;28;20037;-83
2023/08/06 01:07:44;;;;;;;13.63;10.35;;;;;;;23.50;100.00;98588.72;5023695;28;20075;-82
2023/08/06 01:10:29;;;;;;;12.88;10.40;;;;;;;23.41;100.00;98574.41;5006397;28;20029;-81
2023/08/06 01:13:15;;;;;;;17.85;10.02;;;;;;;23.44;100.00;98585.41;5007184;28;20544;-84
2023/08/06 01:15:45;;;;;;;13.73;10.13;;;;;;;23.47;100.00;98578.50;5022886;28;20349;-83
2023/08/06 01:18:10;;;;;;;11.75;9.73;;;;;;;23.56;100.00;98581.91;5007399;28;20040;-82
2023/08/06 01:20:36;;;;;;;14.70;10.57;;;;;;;23.43;100.00;98548.44;5025099;28;20018;-81
2023/08/06 01:23:01;;;;;;;18.40;11.05;;;;;;;23.57;100.00;98558.97;5006726;28;20028;-80
2023/08/06 01:25:33;;;;;;;16.10;10.52;;;;;;;23.34;100.00;98564.09;5024792;28;20029;-83
2023/08/06 01:28:09;;;;;;;16.27;10.48;;;;;;;23.30;100.00;98537.94;5024337;28;20034;-86
2023/08/06 01:30:41;;;;;;;15.45;10.93;;;;;;;23.13;100.00;98545.19;5024802;28;20101;-84
2023/08/06 01:33:09;;;;;;;14.45;10.90;;;;;;;23.30;100.00;98548.81;5023959;28;20049;-83
2023/08/06 01:35:37;;;;;;;14.75;11.10;;;;;;;23.35;100.00;98546.63;5006608;28;20071;-85
2023/08/06 01:38:03;;;;;;;;;;;;;;;23.60;100.00;98566.47;5025090;28;20437;-83
2023/08/06 01:40:29;;;;;;;13.93;10.35;;;;;;;23.47;100.00;98562.16;5024724;28;20432;-84
2023/08/06 01:42:55;;;;;;;16.35;10.93;;;;;;;23.42;100.00;98565.13;5023401;28;20036;-85
2023/08/06 01:45:20;;;;;;;14.95;11.32;;;;;;;23.32;100.00;98541.09;5024203;28;20061;-83
2023/08/06 01:47:46;;;;;;;14.07;10.45;;;;;;;23.49;100.00;98554.47;5024087;28;20029;-84
2023/08/06 01:50:11;;;;;;;16.30;10.95;;;;;;;23.46;100.00;98563.31;5024473;28;20056;-82
2023/08/06 01:52:36;;;;;;;14.63;11.50;;;;;;;23.33;100.00;98538.03;5024108;28;20726;-83
2023/08/06 01:55:02;;;;;;;16.40;10.45;;;;;;;23.24;100.00;98564.56;5001500;28;20049;-81
2023/08/06 01:57:28;;;;;;;16.73;12.45;;;;;;;23.19;100.00;98562.88;5010369;28;20034;-83
2023/08/06 01:59:53;;;;;;;14.07;10.82;;;;;;;23.08;100.00;98539.97;5011821;28;20098;-81
2023/08/06 02:02:19;;;;;;;14.23;11.50;;;;;;;23.20;100.00;98548.13;5011983;28;20056;-83
2023/08/06 02:04:47;;;;;;;16.92;11.85;;;;;;;23.35;100.00;98545.84;5009898;28;20037;-84
2023/08/06 02:07:12;;;;;;;;;;;;;;;23.56;100.00;98565.56;5010377;28;20026;-85
2023/08/06 02:09:38;;;;;;;16.50;11.73;;;;;;;23.43;100.00;98566.72;4993519;28;19913;-83
2023/08/06 02:12:03;;;;;;;13.57;11.00;;;;;;;23.47;100.00;98570.34;5011192;28;20026;-81
2023/08/06 02:14:29;;;;;;;16.63;12.20;;;;;;;23.40;100.00;98556.53;5010293;28;20084;-82
2023/08/06 02:16:54;;;;;;;13.38;11.93;;;;;;;23.63;100.00;98581.31;5010542;28;20414;-85
2023/08/06 02:19:20;;;;;;;16.08;11.50;;;;;;;23.46;100.00;98582.34;4993337;28;20064;-82
2023/08/06 02:21:48;;;;;;;14.85;11.13;;;;;;;23.87;100.00;98596.84;5010234;28;20030;-80
2023/08/06 02:24:13;;;;;;;15.05;11.32;;;;;;;23.84;100.00;98605.69;5010076;28;20168;-81
2023/08/06 02:26:38;;;;;;;13.77;10.80;;;;;;;23.97;100.00;98607.28;5010423;28;20575;-79
2023/08/06 02:29:06;;;;;;;13.75;11.88;;;;;;;23.98;100.00;98595.22;5009616;28;20414;-80
2023/08/06 02:31:31;;;;;;;;;;;;;;;23.91;100.00;98608.66;5010111;28;20105;-81
2023/08/06 02:33:58;;;;;;;15.32;11.10;;;;;;;23.98;100.00;98614.28;5012127;28;20008;-80
2023/08/06 02:36:24;;;;;;;13.50;10.73;;;;;;;24.05;100.00;98614.50;4994648;28;20480;-81
2023/08/06 02:38:49;;;;;;;16.27;11.18;;;;;;;23.81;100.00;98603.69;5013567;28;20477;-80
2023/08/06 02:41:15;;;;;;;16.15;10.98;;;;;;;23.94;100.00;98597.06;5013541;28;20057;-80
2023/08/06 02:43:40;;;;;;;15.73;10.68;;;;;;;23.91;100.00;98603.19;5011775;28;20025;-80
2023/08/06 02:46:05;;;;;;;12.88;10.00;;;;;;;23.97;100.00;98607.28;5011727;28;20046;-80
2023/08/06 02:48:31;;;;;;;12.90;10.90;;;;;;;23.88;100.00;98603.88;5013531;28;20065;-79
2023/08/06 02:50:58;;;;;;;14.68;11.10;;;;;;;23.94;100.00;98602.50;5012784;28;20172;-79
2023/08/06 02:53:24;;;;;;;11.90;10.43;;;;;;;23.85;100.00;98588.25;5011548;28;20510;-81
2023/08/06 02:55:49;;;;;;;14.48;10.80;;;;;;;23.88;100.00;98592.19;5013191;28;20033;-81
2023/08/06 02:58:16;;;;;;;14.18;11.10;;;;;;;23.78;100.00;98596.19;5013199;28;20030;-79
2023/08/06 03:00:44;;;;;;;16.73;11.77;;;;;;;23.98;100.00;98599.88;5012450;28;20026;-80
2023/08/06 03:03:10;;;;;;;12.45;11.00;;;;;;;24.19;100.00;98603.25;5012621;28;20076;-79
2023/08/06 03:05:35;;;;;;;16.90;11.13;;;;;;;23.78;100.00;98577.94;5008752;28;20544;-81
2023/08/06 03:08:01;;;;;;;24.92;12.18;;;;;;;23.91;100.00;98597.75;5011493;28;20073;-80
2023/08/06 03:10:29;;;;;;;20.15;12.02;;;;;;;24.10;100.00;98594.41;5012441;28;20025;-80
2023/08/06 03:12:54;;;;;;;13.85;11.35;;;;;;;24.04;100.00;98604.75;5011925;28;20064;-83
2023/08/06 03:15:19;;;;;;;14.95;12.20;;;;;;;23.90;100.00;98585.25;5012730;28;20030;-81
2023/08/06 03:17:45;;;;;;;15.05;11.32;;;;;;;23.92;100.00;98610.22;5010422;28;20088;-79
2023/08/06 03:20:10;;;;;;;14.02;12.00;;;;;;;24.13;100.00;98609.25;5012242;28;20116;-80
2023/08/06 03:22:36;;;;;;;15.35;11.52;;;;;;;23.78;100.00;98596.19;5012802;28;20113;-80
2023/08/06 03:25:02;;;;;;;14.85;11.32;;;;;;;23.98;100.00;98608.84;5012842;28;20040;-80
2023/08/06 03:27:27;;;;;;;15.98;11.77;;;;;;;23.59;100.00;98594.81;5012999;28;20406;-79
2023/08/06 03:29:53;;;;;;;14.88;11.32;;;;;;;23.56;100.00;98578.38;5013352;28;20029;-80
2023/08/06 03:32:18;;;;;;;13.38;11.70;;;;;;;23.76;100.00;98606.59;5012238;28;20053;-80
2023/08/06 03:34:44;;;;;;;14.90;12.15;;;;;;;23.72;100.00;98613.84;5010182;28;20034;-80
2023/08/06 03:37:09;;;;;;;16.15;12.35;;;;;;;23.70;100.00;98618.84;5012340;28;20034;-79
2023/08/06 03:39:35;;;;;;;16.60;11.85;;;;;;;23.83;100.00;98588.56;5010353;28;20465;-80
2023/08/06 03:42:00;;;;;;;16.45;11.50;;;;;;;24.10;100.00;98631.75;5009028;28;20034;-79
2023/08/06 03:44:27;;;;;;;18.63;13.57;;;;;;;23.92;100.00;98621.09;5010796;28;20036;-79
2023/08/06 03:46:52;;;;;;;16.13;11.40;;;;;;;24.00;100.00;98639.25;5011360;28;20050;-79
2023/08/06 03:49:18;;;;;;;18.95;12.75;;;;;;;23.87;100.00;98634.97;4993437;28;20022;-81
2023/08/06 03:51:43;;;;;;;18.75;13.85;;;;;;;23.93;100.00;98632.81;5009052;28;20040;-79
2023/08/06 03:54:08;;;;;;;19.35;15.13;;;;;;;23.93;100.00;98638.25;5009471;28;20026;-79
2023/08/06 03:56:34;;;;;;;18.02;13.40;;;;;;;24.02;100.00;98636.97;5008946;28;20030;-80
2023/08/06 03:58:59;;;;;;;14.70;11.70;;;;;;;24.35;100.00;98649.59;5009916;28;20152;-80
2023/08/06 04:01:25;;;;;;;17.30;11.88;;;;;;;24.13;100.00;98639.22;5009254;28;20026;-82
2023/08/06 04:03:50;;;;;;;16.15;11.50;;;;;;;23.94;100.00;98624.28;5009861;28;20088;-78
2023/08/06 04:06:15;;;;;;;15.23;13.48;;;;;;;23.97;100.00;98629.06;5009684;28;20026;-81
2023/08/06 04:08:41;;;;;;;15.68;11.65;;;;;;;23.73;100.00;98610.00;5010270;28;20037;-80
2023/08/06 04:11:06;;;;;;;19.83;13.02;;;;;;;24.01;100.00;98615.56;5010010;28;20064;-82
2023/08/06 04:13:32;;;;;;;16.65;13.30;;;;;;;23.82;100.00;98610.69;5005669;28;20034;-82
2023/08/06 04:16:04;;;;;;;17.80;13.45;;;;;;;23.51;100.00;98600.38;5007411;28;20040;-82
2023/08/06 04:18:29;;;;;;;17.52;12.70;;;;;;;23.53;100.00;98582.56;5005518;28;20544;-81
2023/08/06 04:20:57;;;;;;;15.38;13.63;;;;;;;23.44;100.00;98573.75;5007409;28;20301;-81
2023/08/06 04:23:22;;;;;;;19.20;15.10;;;;;;;23.91;100.00;98600.47;5007797;28;20034;-81
2023/08/06 04:25:48;;;;;;;18.02;15.25;;;;;;;23.59;100.00;98575.75;5007615;28;20048;-82
2023/08/06 04:28:13;;;;;;;16.25;14.30;;;;;;;23.93;100.00;98595.47;5007131;28;20179;-81
2023/08/06 04:30:39;;;;;;;19.15;14.00;;;;;;;24.17;100.00;98612.88;5007684;28;20061;-80
2023/08/06 04:33:04;;;;;;;19.00;14.35;;;;;;;24.15;100.00;98612.44;5006462;28;20061;-80
2023/08/06 04:35:30;;;;;;;17.08;13.80;;;;;;;24.32;100.00;98612.16;5007372;28;20063;-80
2023/08/06 04:37:55;;;;;;;17.58;13.70;;;;;;;24.14;100.00;98594.53;5005767;28;20026;-79
2023/08/06 04:40:20;;;;;;;16.80;14.63;;;;;;;24.36;100.00;98613.06;5007171;28;20033;-80
2023/08/06 04:42:46;;;;;;;18.80;14.57;;;;;;;24.42;100.00;98580.91;5007455;28;20064;-81
2023/08/06 04:45:11;;;;;;;17.20;15.35;;;;;;;24.32;100.00;98574.03;5006311;28;20073;-79
2023/08/06 04:47:37;;;;;;;17.92;15.13;;;;;;;24.40;100.00;98585.94;5006767;28;20121;-79
2023/08/06 04:50:02;;;;;;;18.90;15.32;;;;;;;24.17;100.00;98578.28;5006579;28;20556;-79
2023/08/06 04:52:28;;;;;;;19.70;16.27;;;;;;;24.65;100.00;98608.44;5006917;28;20395;-79
2023/08/06 04:54:56;;;;;;;24.42;19.10;;;;;;;24.45;100.00;98589.16;5006686;28;20022;-82
2023/08/06 04:57:22;;;;;;;26.90;21.27;;;;;;;24.50;100.00;98590.91;5006815;28;20127;-79
2023/08/06 04:59:47;;;;;;;27.10;20.58;;;;;;;24.54;100.00;98604.59;5007084;28;20458;-79
2023/08/06 05:02:13;;;;;;;25.63;20.58;;;;;;;24.21;100.00;98573.75;5006242;28;20032;-79
2023/08/06 05:04:38;;;;;;;32.03;23.77;;;;;;;24.51;100.00;98616.22;5006472;28;20044;-79
2023/08/06 05:07:05;;;;;;;30.05;22.67;;;;;;;24.31;100.00;98612.50;5006660;28;20493;-79
2023/08/06 05:09:31;;;;;;;33.27;24.47;;;;;;;24.53;100.00;98616.66;5006569;28;20025;-79
2023/08/06 05:11:56;;;;;;;29.30;22.92;;;;;;;24.63;100.00;98635.25;5006678;28;20292;-79
2023/08/06 05:14:22;;;;;;;29.52;23.67;;;;;;;24.52;100.00;98598.72;5007127;28;20044;-79
2023/08/06 05:16:47;;;;;;;34.80;26.80;;;;;;;24.77;100.00;98594.72;5006382;28;20026;-81
2023/08/06 05:19:12;;;;;;;32.47;25.92;;;;;;;24.63;100.00;98600.59;5005488;28;20033;-79
2023/08/06 05:21:38;;;;;;;32.30;25.73;;;;;;;24.57;100.00;98609.38;5006945;28;20449;-80
2023/08/06 05:24:03;;;;;;;33.67;26.13;;;;;;;24.68;100.00;98613.16;5006225;28;20084;-80
2023/08/06 05:26:29;;;;;;;34.72;28.23;;;;;;;24.84;100.00;98627.63;5006539;28;20270;-80
2023/08/06 05:28:54;;;;;;;37.80;29.48;;;;;;;24.85;100.00;98612.88;4988600;28;20529;-81
2023/08/06 05:31:20;;;;;;;39.40;30.90;;;;;;;24.93;100.00;98629.41;5009860;28;20034;-78
2023/08/06 05:33:45;;;;;;;42.13;32.60;;;;;;;24.85;100.00;98629.22;5010257;28;20514;-80
2023/08/06 05:36:11;;;;;;;42.90;33.47;;;;;;;24.65;100.00;98601.03;5010305;28;20089;-80
2023/08/06 05:38:36;;;;;;;47.28;34.03;;;;;;;24.71;100.00;98623.38;5008911;28;20029;-81
2023/08/06 05:41:02;;;;;;;41.33;32.22;;;;;;;24.96;100.00;98598.72;5009427;28;20034;-79
2023/08/06 05:43:27;;;;;;;40.38;30.15;;;;;;;25.04;100.00;98603.22;5010265;28;20026;-81
2023/08/06 05:45:55;;;;;;;40.67;30.05;;;;;;;24.88;100.00;98610.59;5009798;28;20068;-81
2023/08/06 05:48:22;;;;;;;;;;;;;;;25.09;100.00;98621.25;5011034;28;20506;-81
2023/08/06 05:50:47;;;;;;;38.75;30.13;;;;;;;24.91;100.00;98609.88;5009921;28;19913;-81
2023/08/06 05:53:13;;;;;;;42.47;31.48;;;;;;;25.01;99.07;98601.97;5010717;28;20033;-80
2023/08/06 05:55:39;;;;;;;38.33;29.60;;;;;;;25.10;98.49;98603.75;5014280;28;20453;-81
2023/08/06 05:58:04;;;;;;;38.42;29.60;;;;;;;24.99;99.89;98600.75;5011491;28;20346;-81
2023/08/06 06:00:30;;;;;;;36.08;30.92;;;;;;;24.62;100.00;98587.31;5013562;28;20546;-81
2023/08/06 06:02:55;;;;;;;35.83;29.23;;;;;;;24.64;100.00;98557.78;5012505;28;20029;-82
2023/08/06 06:05:21;;;;;;;38.67;29.67;;;;;;;24.67;100.00;98568.78;5012380;28;20049;-79
2023/08/06 06:07:46;;;;;;;34.72;28.27;;;;;;;24.90;100.00;98564.66;5012560;28;20034;-80
2023/08/06 06:10:14;;;;;;;37.85;29.30;;;;;;;24.78;100.00;98571.78;5012554;28;20032;-84
2023/08/06 06:12:40;;;;;;;35.50;28.55;;;;;;;24.79;100.00;98565.19;5012776;28;20470;-81
2023/08/06 06:15:06;;;;;;;39.00;29.00;;;;;;;24.75;100.00;98564.31;5012492;28;20033;-82
2023/08/06 06:17:32;;;;;;;37.33;28.88;;;;;;;24.78;100.00;98590.06;5011856;28;20026;-83
2023/08/06 06:19:57;;;;;;;41.42;29.60;;;;;;;24.84;100.00;98610.47;5011465;28;20501;-83
2023/08/06 06:22:25;;;;;;;35.95;30.00;;;;;;;24.60;100.00;98567.78;5013049;28;20164;-80
2023/08/06 06:24:50;;;;;;;;;;;;;;;25.01;100.00;98620.28;5011660;28;20072;-81
2023/08/06 06:27:15;;;;;;;40.28;31.35;;;;;;;25.04;100.00;98597.75;5012154;28;19979;-82
2023/08/06 06:29:41;;;;;;;38.28;31.80;;;;;;;25.05;100.00;98585.72;5012280;28;20036;-82
2023/08/06 06:32:07;;;;;;;32.75;26.55;;;;;;;25.00;96.02;98618.69;4994882;28;20038;-82
2023/08/06 06:34:32;;;;;;;36.63;28.75;;;;;;;24.80;98.89;98598.69;5012021;28;20026;-82
2023/08/06 06:37:00;;;;;;;32.53;27.20;;;;;;;25.02;96.20;98641.72;5012536;28;20045;-84
2023/08/06 06:39:25;;;;;;;36.65;29.35;;;;;;;24.76;100.00;98647.66;5011188;28;20080;-84
2023/08/06 06:41:51;;;;;;;36.55;29.20;;;;;;;25.02;100.00;98616.41;5012989;28;20022;-83
2023/08/06 06:44:16;;;;;;;39.90;30.30;;;;;;;24.98;100.00;98593.69;5011848;28;20191;-82
2023/08/06 06:46:42;;;;;;;31.58;26.90;;;;;;;24.60;100.00;98584.13;5011733;28;20161;-84
2023/08/06 06:49:07;;;;;;;39.70;29.92;;;;;;;24.23;100.00;98615.03;5000495;28;20099;-86
2023/08/06 06:51:32;;;;;;;42.05;30.10;;;;;;;24.46;100.00;98628.91;4978269;28;20038;-85
2023/08/06 06:53:58;;;;;;;42.42;31.20;;;;;;;24.58;100.00;98624.56;4990105;28;20034;-86
2023/08/06 06:56:23;;;;;;;44.15;32.63;;;;;;;24.45;100.00;98600.06;4975358;28;20589;-85
2023/08/06 06:58:49;;;;;;;39.90;30.67;;;;;;;23.99;100.00;98601.50;4993101;28;20041;-85
2023/08/06 07:01:14;;;;;;;40.97;31.30;;;;;;;23.81;100.00;98598.22;4992766;28;20030;-85
2023/08/06 07:03:40;;;;;;;46.00;33.53;;;;;;;23.84;100.00;98553.97;4975465;28;20352;-85
2023/08/06 07:06:06;;;;;;;39.72;30.75;;;;;;;23.90;100.00;98525.38;4991485;28;20027;-85
2023/08/06 07:08:32;;;;;;;46.83;33.58;;;;;;;24.20;100.00;98569.41;4991205;28;20089;-86
2023/08/06 07:11:05;;;;;;;39.45;30.63;;;;;;;23.93;100.00;98581.09;4991498;28;20034;-85
2023/08/06 07:13:31;;;;;;;40.17;32.83;;;;;;;24.50;100.00;98601.00;4975616;28;20038;-85
2023/08/06 07:15:57;;;;;;;35.63;29.30;;;;;;;24.75;100.00;98607.94;4992593;28;20085;-88
2023/08/06 07:18:23;;;;;;;38.55;30.25;;;;;;;25.17;100.00;98621.09;4992187;28;20026;-86
2023/08/06 07:20:50;;;;;;;41.83;32.22;;;;;;;25.32;100.00;98611.34;4992883;28;20189;-86
2023/08/06 07:23:15;;;;;;;39.13;31.85;;;;;;;25.08;100.00;98590.44;4975537;28;20479;-86
2023/08/06 07:25:40;;;;;;;36.45;28.23;;;;;;;25.10;99.51;98590.88;4992626;28;20101;-85
2023/08/06 07:28:06;;;;;;;36.85;30.10;;;;;;;25.32;100.00;98594.19;4975220;28;20026;-87
2023/08/06 07:30:31;;;;;;;38.83;32.85;;;;;;;25.06;100.00;98590.78;4990955;28;20030;-85
2023/08/06 07:32:57;;;;;;;66.32;50.47;;;;;;;25.02;100.00;98583.69;4970916;28;20318;-88
2023/08/06 07:35:23;;;;;;;43.67;35.20;;;;;;;25.23;100.00;98608.81;4988066;28;20038;-85
2023/08/06 07:37:48;;;;;;;79.90;59.03;;;;;;;25.18;100.00;98635.50;4988264;28;20030;-85
2023/08/06 07:40:14;;;;;;;52.00;40.28;;;;;;;25.18;100.00;98647.22;4987234;28;20118;-86
2023/08/06 07:42:40;;;;;;;42.97;33.80;;;;;;;24.97;100.00;98642.00;4971264;28;20026;-86
2023/08/06 07:45:07;;;;;;;43.60;33.95;;;;;;;25.23;100.00;98638.81;4993281;28;20050;-85
2023/08/06 07:47:32;;;;;;;45.50;35.90;;;;;;;25.21;100.00;98624.72;4994278;28;20046;-87
2023/08/06 07:49:57;;;;;;;41.88;33.33;;;;;;;24.95;100.00;98627.16;5010705;28;20038;-91
2023/08/06 07:52:23;;;;;;;40.78;31.88;;;;;;;24.89;100.00;98648.41;4994424;28;20091;-88
2023/08/06 07:54:48;;;;;;;42.67;35.10;;;;;;;24.98;100.00;98650.97;4994846;28;20030;-89
2023/08/06 07:57:14;;;;;;;41.88;34.70;;;;;;;25.26;100.00;98664.59;4994954;28;20050;-85
2023/08/06 07:59:40;;;;;;;37.38;31.88;;;;;;;25.42;100.00;98659.94;4994424;28;20058;-90
2023/08/06 08:02:05;;;;;;;37.22;30.48;;;;;;;25.51;100.00;98648.03;5010070;28;20042;-89
2023/08/06 08:04:31;;;;;;;44.38;39.58;;;;;;;25.60;100.00;98654.09;5010405;28;20026;-90
2023/08/06 08:06:56;;;;;;;36.95;30.80;;;;;;;25.55;100.00;98649.72;4993932;28;20085;-91
2023/08/06 08:09:22;;;;;;;85.95;75.63;;;;;;;26.09;97.69;98661.09;4994175;28;20015;-90
2023/08/06 08:11:47;;;;;;;99.00;87.00;;;;;;;25.95;99.50;98654.19;5010499;28;20098;-85
2023/08/06 08:14:15;;;;;;;108.30;95.78;;;;;;;26.12;95.34;98652.19;5009753;28;20049;-89
2023/08/06 08:16:40;;;;;;;36.42;30.83;;;;;;;26.16;94.73;98625.75;5018959;28;20018;-90
2023/08/06 08:19:06;;;;;;;51.38;45.42;;;;;;;26.40;95.89;98622.75;5013294;28;20045;-90
2023/08/06 08:21:33;;;;;;;35.00;30.75;;;;;;;26.53;90.80;98636.25;5013719;28;20010;-90
2023/08/06 08:24:04;;;;;;;;;;;;;;;27.10;87.14;98642.81;5014413;28;20038;-93
2023/08/06 08:26:29;;;;;;;33.45;29.02;;;;;;;27.05;87.92;98623.94;5029610;28;19913;-91
2023/08/06 08:28:55;;;;;;;40.72;31.65;;;;;;;26.99;88.68;98650.03;5013179;28;20034;-90
2023/08/06 08:31:20;;;;;;;34.17;30.42;;;;;;;27.33;90.05;98644.78;5013265;28;20053;-90
2023/08/06 08:33:45;;;;;;;35.65;31.88;;;;;;;27.23;90.49;98622.34;5013149;28;20089;-89
2023/08/06 08:36:11;;;;;;;37.33;32.22;;;;;;;27.11;88.52;98625.22;5013261;28;20050;-88
2023/08/06 08:38:36;;;;;;;38.08;32.00;;;;;;;26.94;95.17;98645.66;5011427;28;20027;-90
2023/08/06 08:41:02;;;;;;;36.97;32.03;;;;;;;26.86;92.81;98643.94;5029096;28;20034;-92
2023/08/06 08:43:29;;;;;;;35.17;31.25;;;;;;;26.66;93.94;98640.44;5013683;28;20077;-88
2023/08/06 08:45:55;;;;;;;35.45;31.75;;;;;;;26.63;94.07;98641.16;5016950;28;20058;-87
2023/08/06 08:48:24;;;;;;;34.47;30.98;;;;;;;26.84;90.85;98621.63;5011539;28;20081;-87
2023/08/06 08:50:50;;;;;;;32.92;28.98;;;;;;;27.13;87.86;98636.59;5011713;28;20044;-88
2023/08/06 08:53:17;;;;;;;31.85;28.52;;;;;;;27.39;86.80;98616.75;5009509;28;20034;-87
2023/08/06 08:55:47;;;;;;;33.83;30.27;;;;;;;27.90;85.03;98640.22;5008821;28;20108;-87
2023/08/06 08:58:14;;;;;;;32.72;29.33;;;;;;;27.71;84.48;98659.50;4990756;28;20038;-88
2023/08/06 09:00:42;;;;;;;33.80;29.77;;;;;;;27.67;87.40;98664.91;4991848;28;20041;-87
2023/08/06 09:03:08;;;;;;;35.70;31.83;;;;;;;27.09;90.52;98665.84;4991978;28;20038;-86
2023/08/06 09:05:33;;;;;;;36.10;31.48;;;;;;;26.85;88.67;98648.63;5009619;28;20368;-87
2023/08/06 09:08:03;;;;;;;38.30;32.85;;;;;;;26.54;92.00;98665.16;5011869;28;20098;-87
2023/08/06 09:10:29;;;;;;;31.92;26.75;;;;;;;26.19;91.00;98644.94;5011828;28;20037;-87
2023/08/06 09:12:56;;;;;;;26.25;21.02;;;;;;;25.75;90.62;98625.22;5011095;28;20027;-87
2023/08/06 09:15:25;;;;;;;33.00;20.10;;;;;;;25.24;96.35;98585.81;5010958;28;20445;-85
2023/08/06 09:17:55;;;;;;;22.48;15.88;;;;;;;25.41;97.79;98583.88;4995407;28;20038;-85
2023/08/06 09:20:21;;;;;;;19.83;14.95;;;;;;;25.75;93.23;98619.75;4995652;28;20411;-86
2023/08/06 09:22:48;;;;;;;21.00;15.70;;;;;;;25.86;100.00;98648.06;5008368;28;20030;-83
2023/08/06 09:25:24;;;;;;;;;;;;;;;24.76;100.00;98658.56;5010458;28;20099;-89
2023/08/06 09:27:51;;;;;;;21.35;15.93;;;;;;;24.14;100.00;98638.09;5010166;28;20329;-92
2023/08/06 09:30:31;;;;;;;18.83;14.30;;;;;;;23.92;100.00;98621.09;4994875;28;20069;-88
2023/08/06 09:32:56;;;;;;;16.98;13.50;;;;;;;23.96;100.00;98621.22;4995391;28;20057;-91
2023/08/06 09:35:22;;;;;;;19.55;14.68;;;;;;;23.89;100.00;98602.75;4993566;28;20417;-88
2023/08/06 09:37:47;;;;;;;18.83;13.88;;;;;;;24.09;100.00;98627.44;5010817;28;20060;-92
2023/08/06 09:40:30;;;;;;;17.33;13.20;;;;;;;24.08;100.00;98609.53;5011247;28;20036;-92
2023/08/06 09:42:56;;;;;;;17.92;13.45;;;;;;;24.23;100.00;98606.88;5011338;28;20034;-91
2023/08/06 09:45:28;;;;;;;18.10;13.13;;;;;;;24.52;100.00;98620.50;5009745;28;20054;-88
2023/08/06 09:47:57;;;;;;;17.63;12.93;;;;;;;24.49;100.00;98626.63;4994463;28;20026;-87
2023/08/06 09:50:25;;;;;;;17.77;13.35;;;;;;;24.96;100.00;98624.03;5010676;28;20039;-89
2023/08/06 09:52:51;;;;;;;17.45;13.48;;;;;;;25.38;100.00;98611.88;5008921;28;20035;-89
2023/08/06 09:55:18;;;;;;;17.80;14.48;;;;;;;25.73;98.77;98625.56;5009774;28;20038;-86
2023/08/06 09:57:43;;;;;;;19.05;15.10;;;;;;;26.08;98.95;98643.91;4993613;28;20040;-87
2023/08/06 10:00:10;;;;;;;20.30;15.35;;;;;;;26.31;95.73;98622.16;4994693;28;20030;-88
2023/08/06 10:02:43;;;;;;;20.90;17.25;;;;;;;26.70;94.93;98630.34;4992917;28;20030;-88
2023/08/06 10:05:11;;;;;;;21.05;18.20;;;;;;;27.07;96.09;98616.16;5009027;28;20121;-88
2023/08/06 10:07:39;;;;;;;23.00;19.88;;;;;;;27.36;86.99;98627.63;5008959;28;20023;-88
2023/08/06 10:10:07;;;;;;;24.35;21.75;;;;;;;27.71;91.54;98626.63;5008445;28;20041;-87
2023/08/06 10:12:37;;;;;;;27.60;22.85;;;;;;;28.05;83.62;98609.13;5009144;28;20041;-88
2023/08/06 10:15:06;;;;;;;26.27;21.70;;;;;;;28.06;83.97;98598.97;5008228;28;20030;-88
2023/08/06 10:17:36;;;;;;;27.70;22.92;;;;;;;28.05;80.61;98598.19;5009280;28;20077;-88
2023/08/06 10:20:06;;;;;;;26.15;22.27;;;;;;;28.20;79.09;98614.78;5008912;28;20030;-87
2023/08/06 10:22:33;;;;;;;27.40;24.05;;;;;;;28.60;75.84;98599.63;5008503;28;20023;-88
2023/08/06 10:25:04;;;;;;;25.83;23.13;;;;;;;28.53;73.37;98578.38;5009214;28;20027;-84
2023/08/06 10:27:42;;;;;;;28.02;23.52;;;;;;;28.52;75.81;98576.00;4991597;28;20121;-88
2023/08/06 10:30:28;;;;;;;27.88;23.95;;;;;;;29.33;74.60;98607.38;5006197;28;20027;-85
2023/08/06 10:33:04;;;;;;;23.93;20.77;;;;;;;29.57;65.43;98590.28;5008473;28;20038;-86
2023/08/06 10:35:37;;;;;;;19.27;17.15;;;;;;;29.70;62.56;98606.47;5006819;28;20022;-87
2023/08/06 10:38:07;;;;;;;15.80;13.80;;;;;;;29.74;61.30;98590.81;5009773;28;20146;-89
2023/08/06 10:40:33;;;;;;;16.20;13.43;;;;;;;29.76;63.33;98585.72;5009631;28;20030;-88
2023/08/06 10:43:00;;;;;;;14.80;12.23;;;;;;;30.16;60.51;98603.19;5008347;28;20033;-88
2023/08/06 10:45:28;;;;;;;14.93;11.80;;;;;;;30.47;56.83;98606.50;5009592;28;20057;-91
2023/08/06 10:47:57;;;;;;;13.43;10.85;;;;;;;30.60;58.04;98607.69;5007688;28;20061;-90
2023/08/06 10:50:24;;;;;;;10.10;8.07;;;;;;;30.26;55.73;98596.97;4991453;28;20034;-90
2023/08/06 10:52:49;;;;;;;10.68;7.57;;;;;;;30.23;57.80;98594.97;5009247;28;20049;-87
2023/08/06 10:55:23;;;;;;;11.38;8.35;;;;;;;30.56;55.38;98593.94;5006947;28;20035;-89
2023/08/06 10:57:48;;;;;;;9.35;7.03;;;;;;;31.18;53.53;98612.16;5007599;28;20434;-89
2023/08/06 11:00:14;;;;;;;10.32;6.95;;;;;;;30.93;52.98;98608.59;5008717;28;20491;-90
2023/08/06 11:02:39;;;;;;;9.85;7.63;;;;;;;30.93;54.52;98605.81;5008587;28;20031;-90
2023/08/06 11:05:06;;;;;;;9.30;7.20;;;;;;;31.36;54.30;98617.63;4990436;28;20042;-90
2023/08/06 11:07:32;;;;;;;9.25;6.47;;;;;;;31.79;52.92;98619.59;4991698;28;20404;-88
2023/08/06 11:10:04;;;;;;;8.45;6.65;;;;;;;32.20;50.11;98624.63;4991905;28;20045;-91
2023/08/06 11:12:31;;;;;;;8.13;6.97;;;;;;;32.48;50.91;98631.22;5007826;28;20034;-91
2023/08/06 11:14:57;;;;;;;8.25;6.30;;;;;;;32.79;47.88;98649.59;4991812;28;20096;-89
2023/08/06 11:17:22;;;;;;;20.75;17.52;;;;;;;32.81;47.48;98625.13;5008437;28;20034;-91